Etusivu
METAR-TAF:

METAR-TAF

Lentoasemat :

Kuressaari, Viro

Kuressaaren lentoasema

Leveyspiiri: 58-13-48N, Pituuspiiri: 022-30-34E, korkeus merenpinnasta: 4 m

Tämänhetkinen sää

Tämä raportti tehtiin 1 tunti ja 5 minuuttia sitten, kello 03.50 UTC
Tuuli 4 kn lännestä/lounaasta, vaihdellen etelän/lounaan ja lännen/luoteen välillä
Lämpötila 10°C
Kosteus 87%
Ilmanpaine 1011 hPa
Näkyvyys 10 km tai enemmän

METAR: EEKE 230350Z AUTO 25004KT 200V300 9999NDV NSC 10/08 Q1011

Aika: 07:55 (04:55 UTC)

Sääennuste

Tämä raportti tehtiin 14 tuntia ja 55 minuuttia sitten, kello 14.00 UTC
Ennuste voimassa 22. päivästä klo 15 UTC - 22. päivään klo 21 UTC
Tuuli 8 kn lännestä
Näkyvyys 10 km tai enemmän
ei pilviä alle 1500 m:ssä eikä cumulonimbus-pilviä

TAF: EEKE 221400Z 2215/2221 26008KT CAVOK

Säähavainnot ja -ennusteet yli 4000 lentoasemalta (METAR- ja TAF-raportit).

Käytössä olevat sääasemat on merkitty karttaan keltaisilla ja punaisilla pisteillä.

Aseta hiiri pisteen päälle nähdäksesi sääaseman nimen.

Klikkaa sitten nähdäksesi säähavainnot ja -ennusteet.

Kartan vaihtaminen: klikkaa mustalla rastilla varustettuja vihreitä pisteitä, niin voit zoomata sisään; viivalla varustettua vihreää pistettä, niin voit zoomata ulos tai vihreitä nuolia, niin pääset viereisille kartoille.


METAR-TAF: